createdAt,value
2018-12-15T13:56:32.679Z,21.54
2018-12-15T13:57:32.736Z,21.43
2018-12-15T13:59:04.562Z,21.51
2018-12-15T14:00:03.227Z,21.60
2018-12-15T14:01:03.213Z,21.52
2018-12-15T14:02:03.206Z,21.64
2018-12-15T14:03:03.193Z,21.61
2018-12-15T14:04:03.183Z,21.69
2018-12-15T14:05:03.173Z,21.72
2018-12-15T14:06:03.159Z,21.77
2018-12-15T14:07:03.147Z,21.79
2018-12-15T14:08:03.141Z,21.83
2018-12-15T14:09:03.128Z,21.91
2018-12-15T14:10:03.119Z,21.93
2018-12-15T14:11:03.110Z,21.99
2018-12-15T14:12:03.096Z,21.95
2018-12-15T14:13:03.085Z,22.08
2018-12-15T14:14:03.075Z,21.99
2018-12-15T14:15:03.065Z,22.04
2018-12-15T14:16:03.052Z,22.04
2018-12-15T14:17:03.041Z,21.99
2018-12-15T14:18:03.033Z,22.10
2018-12-15T14:19:03.022Z,21.98
2018-12-15T14:20:03.011Z,22.00
2018-12-15T14:21:03.001Z,22.02
2018-12-15T14:22:03.000Z,21.99
2018-12-15T14:23:02.977Z,21.93
2018-12-15T14:24:02.971Z,22.02
2018-12-15T14:25:02.959Z,22.06
2018-12-15T14:26:02.948Z,22.02
2018-12-15T14:27:02.938Z,22.00
2018-12-15T14:28:02.925Z,22.00
2018-12-15T14:29:02.959Z,22.11
2018-12-15T14:30:02.904Z,22.06
2018-12-15T14:31:02.892Z,22.13
2018-12-15T14:32:02.880Z,22.10
2018-12-15T14:33:02.872Z,22.06
2018-12-15T14:34:02.861Z,22.00
2018-12-15T14:35:02.849Z,22.11
2018-12-15T14:36:02.838Z,22.10
2018-12-15T14:37:02.831Z,22.08
2018-12-15T14:38:02.816Z,22.07
2018-12-15T14:39:02.810Z,22.04
2018-12-15T14:40:02.804Z,22.15
2018-12-15T14:41:02.786Z,22.15
2018-12-15T14:42:02.775Z,22.17
2018-12-15T14:43:02.761Z,22.17
2018-12-15T14:44:02.752Z,22.11
2018-12-15T14:45:02.741Z,22.11
2018-12-15T14:46:02.728Z,22.20
2018-12-15T14:47:02.718Z,22.20
2018-12-15T14:48:02.706Z,22.32
2018-12-15T14:49:02.696Z,22.29
2018-12-15T14:50:03.881Z,22.30
2018-12-15T14:51:02.673Z,22.38
2018-12-15T14:52:09.799Z,22.39
2018-12-15T14:53:33.157Z,22.43
2018-12-15T14:54:33.123Z,22.47
2018-12-15T14:56:03.597Z,22.53
2018-12-15T14:57:03.575Z,22.47
2018-12-15T14:58:34.022Z,22.55
2018-12-15T14:59:34.011Z,22.57
2018-12-15T15:01:04.489Z,22.54
2018-12-15T15:02:04.455Z,22.62
2018-12-15T15:03:11.770Z,22.59
2018-12-15T15:04:34.931Z,22.66
2018-12-15T15:05:34.918Z,22.60
2018-12-15T15:07:05.392Z,22.69
2018-12-15T15:08:05.366Z,22.75
2018-12-15T15:09:35.826Z,22.73
2018-12-15T15:10:35.810Z,22.75
2018-12-15T15:12:06.296Z,22.85
2018-12-15T15:13:06.267Z,22.78
2018-12-15T15:14:36.735Z,22.80
2018-12-15T15:15:36.719Z,22.72
2018-12-15T15:17:07.197Z,22.75
2018-12-15T15:18:07.201Z,22.76
2018-12-15T15:19:07.181Z,22.75
2018-12-15T15:20:07.151Z,22.70
2018-12-15T15:21:07.159Z,22.75
2018-12-15T15:22:07.123Z,22.75
2018-12-15T15:23:07.117Z,22.80
2018-12-15T15:24:07.100Z,22.84
2018-12-15T15:25:07.091Z,22.78
2018-12-15T15:26:07.082Z,22.83
2018-12-15T15:27:07.067Z,22.84
2018-12-15T15:28:07.060Z,22.78
2018-12-15T15:29:07.046Z,22.84
2018-12-15T15:30:07.036Z,22.87
2018-12-15T15:31:07.025Z,22.88
2018-12-15T15:32:07.017Z,22.81
2018-12-15T15:33:07.003Z,22.90
2018-12-15T15:34:06.992Z,22.88
2018-12-15T15:35:06.981Z,22.88
2018-12-15T15:36:06.971Z,22.88
2018-12-15T15:37:06.959Z,22.88
2018-12-15T15:38:06.952Z,22.85
2018-12-15T15:39:06.938Z,22.90
2018-12-15T15:40:06.928Z,22.81
2018-12-15T15:41:06.920Z,22.91
2018-12-15T15:42:06.905Z,22.85
2018-12-15T15:43:06.893Z,22.88
2018-12-15T15:44:06.884Z,22.91
2018-12-15T15:45:06.873Z,22.88
2018-12-15T15:46:06.870Z,22.96
2018-12-15T15:47:06.850Z,22.93
2018-12-15T15:48:06.841Z,23.00
2018-12-15T15:49:06.828Z,23.06
2018-12-15T15:50:06.819Z,23.09
2018-12-15T15:51:06.807Z,23.05
2018-12-15T15:52:06.805Z,23.12
2018-12-15T15:53:06.785Z,23.21
2018-12-15T15:54:06.776Z,23.25
2018-12-15T15:55:06.763Z,23.20
2018-12-15T15:56:06.757Z,23.27
2018-12-15T15:57:06.742Z,23.17
2018-12-15T15:58:06.733Z,23.18
2018-12-15T15:59:06.722Z,23.31
2018-12-15T16:00:06.721Z,23.34
2018-12-15T16:01:06.702Z,23.36
2018-12-15T16:02:06.690Z,23.31
2018-12-15T16:03:06.679Z,23.28
2018-12-15T16:04:06.668Z,23.32
2018-12-15T16:05:06.664Z,23.31
2018-12-15T16:06:06.681Z,23.32
2018-12-15T16:07:06.645Z,23.36
2018-12-15T16:08:06.627Z,23.27
2018-12-15T16:09:06.619Z,23.32
2018-12-15T16:10:06.605Z,23.32
2018-12-15T16:11:06.598Z,23.25
2018-12-15T16:12:06.586Z,23.32
2018-12-15T16:13:06.572Z,23.27
2018-12-15T16:14:06.563Z,23.28
2018-12-15T16:15:06.551Z,23.36
2018-12-15T16:16:06.540Z,23.28
2018-12-15T16:17:06.539Z,23.41
2018-12-15T16:18:06.533Z,23.34
2018-12-15T16:19:06.512Z,23.37
2018-12-15T16:20:06.498Z,23.32
2018-12-15T16:21:06.488Z,23.31
2018-12-15T16:22:06.475Z,23.39
2018-12-15T16:23:06.467Z,23.43
2018-12-15T16:24:06.511Z,23.39
2018-12-15T16:25:06.446Z,23.36
2018-12-15T16:26:06.432Z,23.43
2018-12-15T16:27:06.422Z,23.44
2018-12-15T16:28:06.412Z,23.51
2018-12-15T16:29:06.401Z,23.50
2018-12-15T16:30:06.389Z,23.55
2018-12-15T16:31:06.380Z,23.46
2018-12-15T16:32:06.369Z,23.43
2018-12-15T16:33:06.360Z,23.47
2018-12-15T16:34:06.346Z,23.41
2018-12-15T16:35:06.337Z,23.50
2018-12-15T16:36:06.332Z,23.46
2018-12-15T16:37:06.317Z,23.50
2018-12-15T16:38:06.306Z,23.51
2018-12-15T16:39:06.292Z,23.46
2018-12-15T16:40:06.281Z,23.48
2018-12-15T16:41:06.275Z,23.58
2018-12-15T16:42:06.262Z,23.55
2018-12-15T16:43:06.258Z,23.56
2018-12-15T16:44:06.243Z,23.59
2018-12-15T16:45:06.230Z,23.56
2018-12-15T16:46:06.217Z,23.63
2018-12-15T16:47:06.210Z,23.59
2018-12-15T16:48:06.208Z,23.59
2018-12-15T16:49:06.247Z,23.55
2018-12-15T16:50:06.174Z,23.48
2018-12-15T16:51:06.163Z,23.54
2018-12-15T16:52:06.156Z,23.48
2018-12-15T16:53:06.144Z,23.48
2018-12-15T16:54:06.139Z,23.54
2018-12-15T16:55:06.122Z,23.48
2018-12-15T16:56:06.184Z,23.54
2018-12-15T16:57:06.102Z,23.55
2018-12-15T16:58:06.089Z,23.56
2018-12-15T16:59:06.085Z,23.56
2018-12-15T17:00:06.068Z,23.48
2018-12-15T17:01:06.057Z,23.55
2018-12-15T17:02:06.047Z,23.55
2018-12-15T17:03:06.038Z,23.54
2018-12-15T17:04:06.027Z,23.62
2018-12-15T17:05:06.014Z,23.59
2018-12-15T17:06:06.003Z,23.48
2018-12-15T17:07:05.995Z,23.59
2018-12-15T17:08:05.988Z,23.58
2018-12-15T17:09:05.991Z,23.58
2018-12-15T17:10:05.961Z,23.58
2018-12-15T17:11:05.954Z,23.59
2018-12-15T17:12:05.940Z,23.59
2018-12-15T17:13:05.929Z,23.61
2018-12-15T17:14:05.974Z,23.66
2018-12-15T17:15:05.908Z,23.66
2018-12-15T17:16:05.903Z,23.66
2018-12-15T17:17:05.894Z,23.65
2018-12-15T17:18:05.877Z,23.65
2018-12-15T17:19:05.868Z,23.66
2018-12-15T17:20:05.857Z,23.69
2018-12-15T17:21:05.846Z,23.61
2018-12-15T17:22:05.834Z,23.56
2018-12-15T17:23:05.821Z,23.55
2018-12-15T17:24:05.809Z,23.55
2018-12-15T17:25:05.800Z,23.54
2018-12-15T17:26:05.794Z,23.43
2018-12-15T17:27:05.777Z,23.43
2018-12-15T17:28:05.772Z,23.32
2018-12-15T17:29:05.759Z,23.27
2018-12-15T17:30:05.744Z,23.24
2018-12-15T17:31:05.742Z,23.18
2018-12-15T17:32:05.723Z,23.28
2018-12-15T17:33:05.714Z,23.09
2018-12-15T17:34:05.708Z,23.09
2018-12-15T17:35:05.693Z,23.08
2018-12-15T17:36:05.686Z,23.00
2018-12-15T17:37:05.669Z,22.99
2018-12-15T17:38:05.662Z,23.03
2018-12-15T17:39:05.650Z,22.98
2018-12-15T17:40:05.642Z,23.02
2018-12-15T17:41:05.629Z,23.00
2018-12-15T17:42:05.619Z,22.93
2018-12-15T17:43:05.607Z,22.90
2018-12-15T17:44:05.597Z,22.87
2018-12-15T17:45:05.592Z,22.85
2018-12-15T17:46:05.575Z,22.84
2018-12-15T17:47:05.563Z,22.85
2018-12-15T17:48:05.557Z,22.84
2018-12-15T17:49:05.544Z,22.75
2018-12-15T17:50:05.532Z,22.76
2018-12-15T17:51:05.522Z,22.83
2018-12-15T17:52:05.511Z,22.66
2018-12-15T17:53:05.501Z,22.69
2018-12-15T17:54:05.488Z,22.75
2018-12-15T17:55:05.478Z,22.72
2018-12-15T17:56:05.467Z,22.60
2018-12-15T17:57:05.470Z,22.72
2018-12-15T17:58:05.447Z,22.68
2018-12-15T17:59:05.436Z,22.63
2018-12-15T18:00:05.422Z,22.60
2018-12-15T18:01:05.417Z,22.68
2018-12-15T18:02:05.412Z,22.68
2018-12-15T18:03:05.392Z,22.60
2018-12-15T18:04:05.379Z,22.65
2018-12-15T18:05:05.368Z,22.57
2018-12-15T18:06:05.360Z,22.59
2018-12-15T18:07:05.348Z,22.62
2018-12-15T18:08:05.405Z,22.55
2018-12-15T18:09:05.325Z,22.53
2018-12-15T18:10:05.347Z,22.48
2018-12-15T18:11:05.306Z,22.59
2018-12-15T18:12:05.299Z,22.53
2018-12-15T18:13:05.279Z,22.54
2018-12-15T18:14:05.268Z,22.57
2018-12-15T18:15:05.258Z,22.50
2018-12-15T18:16:05.250Z,22.44
2018-12-15T18:17:05.237Z,22.51
2018-12-15T18:18:05.225Z,22.45
2018-12-15T18:19:05.215Z,22.44
2018-12-15T18:20:05.201Z,22.48
2018-12-15T18:21:09.777Z,22.39
2018-12-15T18:22:05.185Z,22.48
2018-12-15T18:23:05.171Z,22.48
2018-12-15T18:24:05.158Z,22.44
2018-12-15T18:25:05.149Z,22.36
2018-12-15T18:26:05.137Z,22.36
2018-12-15T18:27:05.125Z,22.36
2018-12-15T18:28:05.113Z,22.36
2018-12-15T18:29:05.105Z,22.38
2018-12-15T18:30:05.096Z,22.45
2018-12-15T18:31:05.081Z,22.39
2018-12-15T18:32:05.072Z,22.30
2018-12-15T18:33:05.058Z,22.32
2018-12-15T18:34:05.049Z,22.35
2018-12-15T18:35:05.076Z,22.32
2018-12-15T18:36:05.037Z,22.28
2018-12-15T18:37:05.014Z,22.29
2018-12-15T18:38:05.007Z,22.26
2018-12-15T18:39:04.997Z,22.29
2018-12-15T18:40:04.981Z,22.30
2018-12-15T18:41:04.971Z,22.33
2018-12-15T18:42:10.618Z,22.20
2018-12-15T18:43:05.949Z,22.26
2018-12-15T18:44:04.942Z,22.26
2018-12-15T18:45:04.930Z,22.25
2018-12-15T18:46:04.916Z,22.23
2018-12-15T18:47:04.905Z,22.17
2018-12-15T18:48:04.900Z,22.17
2018-12-15T18:49:04.883Z,22.20
2018-12-15T18:50:04.870Z,22.22
2018-12-15T18:51:04.866Z,22.22
2018-12-15T18:52:04.857Z,22.13
2018-12-15T18:53:04.837Z,22.15
2018-12-15T18:54:04.836Z,22.17
2018-12-15T18:55:04.819Z,22.13
2018-12-15T18:56:04.804Z,22.15
2018-12-15T18:57:04.852Z,22.13
2018-12-15T18:58:04.781Z,22.17
2018-12-15T18:59:04.773Z,22.11
2018-12-15T19:00:04.762Z,22.08
2018-12-15T19:01:04.753Z,22.13
2018-12-15T19:02:04.739Z,22.07
2018-12-15T19:03:04.725Z,22.13
2018-12-15T19:04:04.714Z,22.08
2018-12-15T19:05:04.779Z,22.07
2018-12-15T19:06:04.699Z,22.04
2018-12-15T19:07:04.687Z,22.00
2018-12-15T19:08:04.669Z,22.07
2018-12-15T19:09:04.667Z,22.04
2018-12-15T19:10:04.650Z,22.06
2018-12-15T19:11:04.646Z,21.99
2018-12-15T19:12:04.628Z,22.04
2018-12-15T19:13:04.616Z,22.07
2018-12-15T19:14:04.604Z,21.99
2018-12-15T19:15:04.596Z,22.04
2018-12-15T19:16:04.582Z,21.98
2018-12-15T19:17:04.573Z,21.98
2018-12-15T19:18:04.564Z,22.06
2018-12-15T19:19:04.547Z,21.95
2018-12-15T19:20:04.540Z,22.00
2018-12-15T19:21:04.533Z,21.95
2018-12-15T19:22:04.515Z,22.02
2018-12-15T19:23:04.503Z,22.00
2018-12-15T19:24:04.494Z,21.96
2018-12-15T19:25:04.483Z,21.96
2018-12-15T19:26:04.473Z,21.98
2018-12-15T19:27:04.466Z,21.98
2018-12-15T19:28:04.457Z,21.95
2018-12-15T19:29:04.439Z,21.93
2018-12-15T19:30:04.428Z,21.96
2018-12-15T19:31:04.420Z,21.96
2018-12-15T19:32:04.405Z,21.96
2018-12-15T19:33:04.400Z,21.93
2018-12-15T19:34:04.450Z,21.93
2018-12-15T19:35:04.372Z,21.91
2018-12-15T19:36:04.364Z,21.93
2018-12-15T19:37:04.352Z,21.93
2018-12-15T19:38:04.339Z,21.88
2018-12-15T19:39:04.328Z,21.89
2018-12-15T19:40:04.321Z,21.91
2018-12-15T19:41:04.306Z,21.88
2018-12-15T19:42:04.294Z,21.91
2018-12-15T19:43:04.283Z,21.85
2018-12-15T19:44:04.274Z,21.80
2018-12-15T19:45:04.263Z,21.91
2018-12-15T19:46:04.260Z,21.83
2018-12-15T19:47:04.240Z,21.80
2018-12-15T19:48:04.227Z,21.92
2018-12-15T19:49:04.217Z,21.91
2018-12-15T19:50:04.205Z,21.93
2018-12-15T19:51:04.200Z,21.88
2018-12-15T19:52:04.183Z,21.89
2018-12-15T19:53:04.174Z,21.88
2018-12-15T19:54:04.163Z,21.89
2018-12-15T19:55:04.149Z,21.83
2018-12-15T19:56:04.144Z,21.77
2018-12-15T19:57:04.164Z,21.85
2018-12-15T19:58:04.116Z,21.83
2018-12-15T19:59:04.109Z,21.80
2018-12-15T20:00:04.096Z,21.76
2018-12-15T20:01:04.085Z,21.76
2018-12-15T20:02:04.075Z,21.77
2018-12-15T20:03:04.062Z,21.79
2018-12-15T20:04:04.080Z,21.79
2018-12-15T20:05:04.038Z,21.80
2018-12-15T20:06:04.166Z,21.75
2018-12-15T20:07:04.017Z,21.82
2018-12-15T20:08:04.011Z,21.77
2018-12-15T20:09:03.994Z,21.77
2018-12-15T20:10:03.983Z,21.75
2018-12-15T20:11:03.975Z,21.80
2018-12-15T20:12:03.962Z,21.72
2018-12-15T20:13:03.952Z,21.77
2018-12-15T20:14:03.943Z,21.77
2018-12-15T20:15:03.933Z,21.80
2018-12-15T20:16:03.918Z,21.73
2018-12-15T20:17:03.906Z,21.79
2018-12-15T20:18:03.895Z,21.79
2018-12-15T20:19:03.893Z,21.83
2018-12-15T20:20:03.873Z,21.85
2018-12-15T20:21:03.863Z,21.85
2018-12-15T20:22:03.966Z,21.82
2018-12-15T20:23:03.840Z,21.89
2018-12-15T20:24:03.829Z,21.82
2018-12-15T20:25:03.823Z,21.79
2018-12-15T20:26:03.808Z,21.82
2018-12-15T20:27:03.794Z,21.82
2018-12-15T20:28:03.797Z,21.85
2018-12-15T20:29:03.774Z,21.89
2018-12-15T20:30:03.772Z,21.85
2018-12-15T20:31:03.759Z,21.83
2018-12-15T20:32:03.748Z,21.92
2018-12-15T20:33:03.729Z,21.91
2018-12-15T20:34:03.718Z,21.82
2018-12-15T20:35:03.705Z,21.88
2018-12-15T20:36:03.697Z,21.89
2018-12-15T20:37:03.683Z,21.92
2018-12-15T20:38:03.674Z,21.88
2018-12-15T20:39:03.662Z,21.91
2018-12-15T20:40:03.667Z,21.82
2018-12-15T20:41:03.639Z,21.83
2018-12-15T20:42:03.631Z,21.83
2018-12-15T20:43:03.618Z,21.85
2018-12-15T20:44:03.609Z,21.80
2018-12-15T20:45:03.603Z,21.83
2018-12-15T20:46:03.594Z,21.75
2018-12-15T20:47:03.581Z,21.73
2018-12-15T20:48:03.564Z,21.79
2018-12-15T20:49:03.549Z,21.79
2018-12-15T20:50:03.539Z,21.76
2018-12-15T20:51:03.527Z,21.76
2018-12-15T20:52:03.517Z,21.77
2018-12-15T20:53:03.506Z,21.79
2018-12-15T20:54:03.495Z,21.72
2018-12-15T20:55:03.485Z,21.75
2018-12-15T20:56:03.480Z,21.76
2018-12-15T20:57:03.464Z,21.80
2018-12-15T20:58:03.451Z,21.80
2018-12-15T20:59:03.440Z,21.75
2018-12-15T21:00:03.429Z,21.75
2018-12-15T21:01:03.479Z,21.72
2018-12-15T21:02:03.407Z,21.73
2018-12-15T21:03:03.398Z,21.72
2018-12-15T21:04:03.398Z,21.76
2018-12-15T21:05:03.376Z,21.69
2018-12-15T21:06:03.404Z,21.75
2018-12-15T21:07:03.351Z,21.70
2018-12-15T21:08:04.018Z,21.77
2018-12-15T21:09:03.337Z,21.67
2018-12-15T21:10:03.324Z,21.75
2018-12-15T21:11:03.307Z,21.76
2018-12-15T21:12:03.298Z,21.79
2018-12-15T21:13:03.286Z,21.75
2018-12-15T21:14:03.274Z,21.88
2018-12-15T21:15:03.265Z,21.89
2018-12-15T21:16:03.260Z,21.93
2018-12-15T21:17:03.241Z,21.96
2018-12-15T21:18:03.230Z,22.00
2018-12-15T21:19:03.229Z,22.07
2018-12-15T21:20:03.236Z,22.14
2018-12-15T21:21:03.195Z,22.22
2018-12-15T21:22:03.190Z,22.20
2018-12-15T21:23:03.175Z,22.22
2018-12-15T21:24:03.164Z,22.29
2018-12-15T21:25:03.154Z,22.30
2018-12-15T21:26:03.152Z,22.33
2018-12-15T21:27:03.130Z,22.47
2018-12-15T21:28:03.118Z,22.44
2018-12-15T21:29:03.112Z,22.38
2018-12-15T21:30:03.103Z,22.47
2018-12-15T21:31:03.084Z,22.45
2018-12-15T21:32:03.073Z,22.53
2018-12-15T21:33:03.073Z,22.50
2018-12-15T21:34:07.817Z,22.43
2018-12-15T21:35:04.067Z,22.57
2018-12-15T21:36:03.032Z,22.62
2018-12-15T21:37:03.018Z,22.55
2018-12-15T21:38:03.009Z,22.57
2018-12-15T21:39:03.006Z,22.57
2018-12-15T21:40:02.987Z,22.70
2018-12-15T21:41:02.976Z,22.72
2018-12-15T21:42:02.963Z,22.65
2018-12-15T21:43:02.953Z,22.60
2018-12-15T21:44:02.942Z,22.72
2018-12-15T21:45:02.928Z,22.68
2018-12-15T21:46:02.918Z,22.76
2018-12-15T21:47:02.906Z,22.73
2018-12-15T21:48:02.898Z,22.80
2018-12-15T21:49:02.888Z,22.75
2018-12-15T21:50:02.873Z,22.75
2018-12-15T21:51:02.866Z,22.76
2018-12-15T21:52:02.855Z,22.75
2018-12-15T21:53:02.841Z,22.80
2018-12-15T21:54:02.828Z,22.78
2018-12-15T21:55:02.819Z,22.84
2018-12-15T21:56:02.809Z,22.80
2018-12-15T21:57:02.802Z,22.84
2018-12-15T21:58:02.785Z,22.85
2018-12-15T21:59:02.775Z,22.84
2018-12-15T22:00:02.766Z,22.81
2018-12-15T22:01:02.760Z,22.83
2018-12-15T22:02:02.745Z,22.87
2018-12-15T22:03:02.740Z,22.85
2018-12-15T22:04:02.717Z,22.85
2018-12-15T22:05:02.707Z,22.85
2018-12-15T22:06:02.697Z,22.85
2018-12-15T22:07:02.684Z,22.88
2018-12-15T22:08:02.681Z,22.90
2018-12-15T22:09:02.666Z,22.84
2018-12-15T22:10:02.656Z,22.87
2018-12-15T22:11:02.640Z,22.90
2018-12-15T22:12:02.632Z,22.88
2018-12-15T22:13:02.622Z,22.91
2018-12-15T22:14:03.304Z,22.85
2018-12-15T22:15:02.597Z,22.90
2018-12-15T22:16:02.584Z,22.88
2018-12-15T22:17:02.578Z,22.91
2018-12-15T22:18:02.565Z,22.90
2018-12-15T22:19:02.552Z,22.90
